Time;durP1;ratioP1;P1;durP2;ratioP2;P2;SDS_P1;SDS_P2;PMS_P1;PMS_P2;Temp;Humidity;BMP_temperature;BMP_pressure;BME280_temperature;BME280_humidity;BME280_pressure;Samples;Min_cycle;Max_cycle;Signal;HPM_P1;HPM_P2
2022/01/05 00:00:21;;;;;;;8.85;1.60;;;;;;;;;;5025854;28;20469;-72
2022/01/05 00:02:47;;;;;;;12.35;1.60;;;;;;;;;;5032628;28;20054;-73
2022/01/05 00:05:14;;;;;;;8.80;1.85;;;;;;;;;;5029719;28;20152;-72
2022/01/05 00:07:40;;;;;;;10.02;3.08;;;;;;;;;;5031797;28;20161;-73
2022/01/05 00:10:06;;;;;;;9.68;2.00;;;;;;;;;;5039609;28;20133;-73
2022/01/05 00:12:33;;;;;;;3.97;1.23;;;;;;;;;;5033428;28;20054;-72
2022/01/05 00:14:59;;;;;;;11.07;1.70;;;;;;;;;;5034334;28;20528;-72
2022/01/05 00:17:25;;;;;;;10.30;2.33;;;;;;;;;;5034286;28;20061;-73
2022/01/05 00:19:51;;;;;;;4.10;1.30;;;;;;;;;;5030655;28;20057;-73
2022/01/05 00:22:18;;;;;;;9.02;2.08;;;;;;;;;;5031794;28;20061;-72
2022/01/05 00:24:44;;;;;;;6.15;1.45;;;;;;;;;;5030998;28;20055;-72
2022/01/05 00:27:10;;;;;;;7.75;1.58;;;;;;;;;;5028280;28;20520;-73
2022/01/05 00:29:37;;;;;;;8.80;1.60;;;;;;;;;;5035465;28;20137;-72
2022/01/05 00:32:04;;;;;;;5.90;1.70;;;;;;;;;;5026208;28;20057;-71
2022/01/05 00:34:30;;;;;;;8.50;2.22;;;;;;;;;;5029592;28;20082;-73
2022/01/05 00:36:56;;;;;;;8.18;1.73;;;;;;;;;;5021838;28;20058;-70
2022/01/05 00:39:23;;;;;;;9.52;1.73;;;;;;;;;;5027325;28;20050;-71
2022/01/05 00:41:49;;;;;;;6.60;1.50;;;;;;;;;;5029033;28;20089;-71
2022/01/05 00:44:15;;;;;;;10.38;1.88;;;;;;;;;;5028075;28;20492;-72
2022/01/05 00:46:42;;;;;;;7.63;1.50;;;;;;;;;;5032548;28;20054;-72
2022/01/05 00:49:08;;;;;;;9.02;2.10;;;;;;;;;;5018889;28;20486;-71
2022/01/05 00:51:34;;;;;;;6.88;1.42;;;;;;;;;;5020044;28;20058;-72
2022/01/05 00:54:01;;;;;;;8.93;1.80;;;;;;;;;;5019826;28;20141;-72
2022/01/05 00:56:27;;;;;;;10.48;3.65;;;;;;;;;;5029279;28;20060;-71
2022/01/05 00:58:53;;;;;;;11.95;2.40;;;;;;;;;;5028503;28;20061;-72
2022/01/05 01:01:20;;;;;;;9.23;2.08;;;;;;;;;;5032374;28;20046;-72
2022/01/05 01:03:46;;;;;;;6.50;2.15;;;;;;;;;;5027941;28;20493;-71
2022/01/05 01:06:12;;;;;;;10.98;2.15;;;;;;;;;;5050304;28;20060;-72
2022/01/05 01:08:39;;;;;;;13.40;1.70;;;;;;;;;;5025463;28;20054;-71
2022/01/05 01:11:05;;;;;;;6.38;1.33;;;;;;;;;;5033533;28;20136;-71
2022/01/05 01:13:32;;;;;;;9.00;1.52;;;;;;;;;;5020438;28;20062;-72
2022/01/05 01:15:58;;;;;;;11.88;3.03;;;;;;;;;;5015942;28;20054;-71
2022/01/05 01:18:25;;;;;;;14.20;2.05;;;;;;;;;;5029940;28;20054;-73
2022/01/05 01:20:51;;;;;;;8.27;1.70;;;;;;;;;;5025296;28;20054;-70
2022/01/05 01:23:21;;;;;;;11.60;2.40;;;;;;;;;;5021821;28;20566;-70
2022/01/05 01:25:50;;;;;;;7.90;2.03;;;;;;;;;;5028092;28;20061;-73
2022/01/05 01:28:17;;;;;;;8.73;2.83;;;;;;;;;;5030689;28;20069;-73
2022/01/05 01:30:43;;;;;;;12.00;2.35;;;;;;;;;;5029083;28;20049;-73
2022/01/05 01:33:10;;;;;;;9.93;2.33;;;;;;;;;;5037571;28;20520;-71
2022/01/05 01:35:36;;;;;;;5.68;2.17;;;;;;;;;;5022189;28;20050;-72
2022/01/05 01:38:02;;;;;;;10.90;1.88;;;;;;;;;;5024000;28;20100;-72
2022/01/05 01:40:29;;;;;;;12.32;1.90;;;;;;;;;;5019692;28;20050;-72
2022/01/05 01:42:55;;;;;;;11.90;2.72;;;;;;;;;;5030898;28;20054;-72
2022/01/05 01:45:21;;;;;;;16.77;3.60;;;;;;;;;;5027156;28;20054;-72
2022/01/05 01:47:48;;;;;;;14.88;2.28;;;;;;;;;;5025633;28;20050;-72
2022/01/05 01:50:14;;;;;;;9.98;2.08;;;;;;;;;;5013541;28;20054;-72
2022/01/05 01:52:40;;;;;;;11.93;1.83;;;;;;;;;;5021259;28;20081;-72
2022/01/05 01:55:07;;;;;;;7.90;1.50;;;;;;;;;;5032135;28;20123;-73
2022/01/05 01:57:34;;;;;;;9.48;2.38;;;;;;;;;;5028050;28;20491;-72
2022/01/05 02:00:01;;;;;;;8.48;2.35;;;;;;;;;;5030542;28;20054;-71
2022/01/05 02:02:28;;;;;;;9.15;1.70;;;;;;;;;;5021355;28;20049;-72
2022/01/05 02:04:55;;;;;;;13.43;2.10;;;;;;;;;;5031660;28;20062;-71
2022/01/05 02:07:22;;;;;;;9.10;1.75;;;;;;;;;;5028722;28;20578;-71
2022/01/05 02:09:48;;;;;;;9.98;1.73;;;;;;;;;;5033362;28;20103;-72
2022/01/05 02:12:14;;;;;;;9.18;1.95;;;;;;;;;;5028451;28;20552;-71
2022/01/05 02:14:40;;;;;;;10.43;2.22;;;;;;;;;;5027066;28;20057;-72
2022/01/05 02:17:20;;;;;;;14.38;2.47;;;;;;;;;;5024275;28;20490;-72
2022/01/05 02:19:46;;;;;;;7.50;1.70;;;;;;;;;;5024433;28;20046;-72
2022/01/05 02:22:12;;;;;;;13.48;1.85;;;;;;;;;;5032287;28;20050;-72
2022/01/05 02:24:38;;;;;;;10.05;2.45;;;;;;;;;;5017281;28;20058;-72
2022/01/05 02:27:05;;;;;;;10.25;1.98;;;;;;;;;;5029561;28;20053;-71
2022/01/05 02:29:31;;;;;;;9.02;2.38;;;;;;;;;;5032916;28;20062;-71
2022/01/05 02:32:04;;;;;;;10.88;2.30;;;;;;;;;;5021836;28;20050;-72
2022/01/05 02:34:30;;;;;;;6.68;2.28;;;;;;;;;;5015425;28;20145;-71
2022/01/05 02:36:56;;;;;;;6.50;1.83;;;;;;;;;;5017080;28;20050;-72
2022/01/05 02:39:22;;;;;;;8.75;2.22;;;;;;;;;;5020207;28;20057;-72
2022/01/05 02:41:50;;;;;;;6.80;2.10;;;;;;;;;;5032499;28;20057;-70
2022/01/05 02:44:16;;;;;;;10.55;2.25;;;;;;;;;;5040476;28;20140;-72
2022/01/05 02:46:42;;;;;;;12.95;2.20;;;;;;;;;;5038967;28;20050;-71
2022/01/05 02:49:09;;;;;;;7.20;2.35;;;;;;;;;;5028925;28;20058;-71
2022/01/05 02:51:35;;;;;;;14.63;2.55;;;;;;;;;;5032459;28;20446;-72
2022/01/05 02:54:02;;;;;;;9.82;1.90;;;;;;;;;;5028896;28;20502;-72
2022/01/05 02:56:28;;;;;;;7.25;2.25;;;;;;;;;;5021690;28;20146;-73
2022/01/05 02:58:54;;;;;;;10.20;2.70;;;;;;;;;;5027200;28;20054;-72
2022/01/05 03:01:21;;;;;;;9.80;2.58;;;;;;;;;;5031429;28;20049;-72
2022/01/05 03:03:47;;;;;;;13.23;2.63;;;;;;;;;;5035273;28;20085;-72
2022/01/05 03:06:13;;;;;;;11.38;2.42;;;;;;;;;;5028757;28;20068;-72
2022/01/05 03:08:40;;;;;;;8.13;2.08;;;;;;;;;;5034557;28;20058;-72
2022/01/05 03:11:06;;;;;;;16.10;2.33;;;;;;;;;;5036183;28;20569;-73
2022/01/05 03:13:32;;;;;;;11.30;2.25;;;;;;;;;;5042774;28;20053;-73
2022/01/05 03:15:59;;;;;;;14.30;2.10;;;;;;;;;;5046079;28;20054;-71
2022/01/05 03:18:25;;;;;;;14.00;2.65;;;;;;;;;;5028809;28;20058;-72
2022/01/05 03:20:51;;;;;;;10.13;2.30;;;;;;;;;;5050225;28;20050;-72
2022/01/05 03:23:18;;;;;;;10.20;2.33;;;;;;;;;;5028443;28;20092;-73
2022/01/05 03:25:44;;;;;;;15.15;2.42;;;;;;;;;;5033632;28;20057;-72
2022/01/05 03:28:10;;;;;;;13.60;2.42;;;;;;;;;;5033742;28;20058;-72
2022/01/05 03:30:37;;;;;;;19.27;3.72;;;;;;;;;;5036010;28;20054;-72
2022/01/05 03:33:12;;;;;;;14.25;3.25;;;;;;;;;;5032365;28;20061;-71
2022/01/05 03:35:40;;;;;;;11.15;2.20;;;;;;;;;;5019601;28;20050;-72
2022/01/05 03:38:07;;;;;;;14.10;2.90;;;;;;;;;;5027431;28;20060;-72
2022/01/05 03:40:34;;;;;;;18.20;2.45;;;;;;;;;;5033495;28;20050;-72
2022/01/05 03:43:01;;;;;;;11.13;2.13;;;;;;;;;;5026070;28;20437;-72
2022/01/05 03:45:28;;;;;;;14.30;3.33;;;;;;;;;;5015941;28;20046;-72
2022/01/05 03:47:54;;;;;;;9.50;1.90;;;;;;;;;;5021850;28;20497;-73
2022/01/05 03:50:21;;;;;;;8.45;2.08;;;;;;;;;;5023617;28;20056;-71
2022/01/05 03:52:47;;;;;;;14.00;3.00;;;;;;;;;;5038984;28;20429;-71
2022/01/05 03:55:13;;;;;;;14.95;2.97;;;;;;;;;;5031717;28;20100;-72
2022/01/05 03:57:39;;;;;;;10.85;2.38;;;;;;;;;;5031725;28;20049;-71
2022/01/05 04:00:06;;;;;;;17.73;2.97;;;;;;;;;;5034466;28;20129;-71
2022/01/05 04:02:33;;;;;;;8.18;2.42;;;;;;;;;;5030145;28;20058;-72
2022/01/05 04:04:59;;;;;;;10.35;2.97;;;;;;;;;;5027141;28;20072;-71
2022/01/05 04:07:25;;;;;;;10.45;2.53;;;;;;;;;;5022743;28;20054;-72
2022/01/05 04:09:52;;;;;;;14.90;3.00;;;;;;;;;;5032550;28;20065;-72
2022/01/05 04:12:18;;;;;;;13.50;3.10;;;;;;;;;;5031194;28;20101;-71
2022/01/05 04:14:44;;;;;;;16.27;2.85;;;;;;;;;;5038287;28;20054;-71
2022/01/05 04:17:10;;;;;;;5.90;2.85;;;;;;;;;;5033148;28;20054;-71
2022/01/05 04:19:37;;;;;;;14.98;2.90;;;;;;;;;;5035002;28;20061;-72
2022/01/05 04:22:04;;;;;;;16.45;2.72;;;;;;;;;;5027506;28;20064;-71
2022/01/05 04:24:30;;;;;;;20.92;3.38;;;;;;;;;;5025706;28;20061;-71
2022/01/05 04:26:57;;;;;;;16.63;2.75;;;;;;;;;;5029557;28;20056;-71
2022/01/05 04:29:23;;;;;;;23.40;3.42;;;;;;;;;;5039269;28;20054;-71
2022/01/05 04:31:50;;;;;;;13.93;2.65;;;;;;;;;;5033731;28;20054;-71
2022/01/05 04:34:18;;;;;;;13.88;2.95;;;;;;;;;;5033372;28;20058;-71
2022/01/05 04:37:06;;;;;;;15.73;2.90;;;;;;;;;;5031607;28;20053;-72
2022/01/05 04:39:33;;;;;;;17.35;2.88;;;;;;;;;;5027822;28;20510;-70
2022/01/05 04:42:00;;;;;;;19.23;3.63;;;;;;;;;;5042401;28;20053;-73
2022/01/05 04:44:26;;;;;;;22.55;2.88;;;;;;;;;;5015315;28;20496;-72
2022/01/05 04:46:53;;;;;;;10.95;2.35;;;;;;;;;;5025992;28;20050;-71
2022/01/05 04:49:19;;;;;;;10.98;2.72;;;;;;;;;;5013700;28;20064;-71
2022/01/05 04:51:46;;;;;;;14.40;2.97;;;;;;;;;;5014889;28;20051;-71
2022/01/05 04:54:13;;;;;;;19.48;3.88;;;;;;;;;;5014862;28;20054;-72
2022/01/05 04:56:39;;;;;;;15.98;4.13;;;;;;;;;;5038903;28;20053;-69
2022/01/05 04:59:05;;;;;;;15.38;3.35;;;;;;;;;;5020757;28;20054;-69
2022/01/05 05:01:31;;;;;;;10.65;2.47;;;;;;;;;;5013405;28;20054;-71
2022/01/05 05:03:58;;;;;;;18.30;3.42;;;;;;;;;;5016125;28;20166;-72
2022/01/05 05:06:24;;;;;;;15.45;3.13;;;;;;;;;;5016705;28;20050;-71
2022/01/05 05:08:51;;;;;;;11.38;3.03;;;;;;;;;;5014625;28;20065;-72
2022/01/05 05:11:17;;;;;;;16.15;3.13;;;;;;;;;;5012414;28;20058;-72
2022/01/05 05:13:43;;;;;;;16.25;3.25;;;;;;;;;;5018294;28;20077;-73
2022/01/05 05:16:10;;;;;;;16.42;3.20;;;;;;;;;;5034419;28;20516;-72
2022/01/05 05:18:36;;;;;;;12.40;2.83;;;;;;;;;;5022395;28;20053;-73
2022/01/05 05:21:03;;;;;;;20.75;3.78;;;;;;;;;;5031254;28;20133;-73
2022/01/05 05:23:29;;;;;;;15.07;2.83;;;;;;;;;;5032109;28;20129;-72
2022/01/05 05:25:55;;;;;;;7.88;2.63;;;;;;;;;;5032665;28;20058;-72
2022/01/05 05:28:22;;;;;;;15.45;2.95;;;;;;;;;;5032068;28;20053;-72
2022/01/05 05:30:48;;;;;;;17.08;2.70;;;;;;;;;;5017662;28;20062;-74
2022/01/05 05:33:15;;;;;;;16.08;2.90;;;;;;;;;;5028809;28;20536;-73
2022/01/05 05:35:41;;;;;;;8.57;2.42;;;;;;;;;;5048308;28;20911;-71
2022/01/05 05:38:08;;;;;;;16.92;4.00;;;;;;;;;;5036358;28;20109;-72
2022/01/05 05:40:38;;;;;;;9.98;2.65;;;;;;;;;;5032013;28;20478;-72
2022/01/05 05:43:04;;;;;;;23.00;3.53;;;;;;;;;;5017604;28;20123;-72
2022/01/05 05:45:31;;;;;;;11.63;2.25;;;;;;;;;;5035909;28;20057;-72
2022/01/05 05:47:57;;;;;;;15.55;3.55;;;;;;;;;;5031436;28;20085;-73
2022/01/05 05:50:23;;;;;;;17.67;3.53;;;;;;;;;;5022364;28;20459;-73
2022/01/05 05:52:50;;;;;;;15.48;2.67;;;;;;;;;;5025072;28;20057;-75
2022/01/05 05:55:16;;;;;;;16.08;3.97;;;;;;;;;;5031932;28;20065;-73
2022/01/05 05:57:43;;;;;;;15.80;2.97;;;;;;;;;;5024111;28;20599;-73
2022/01/05 06:00:10;;;;;;;12.38;3.00;;;;;;;;;;5013992;28;20377;-74
2022/01/05 06:02:36;;;;;;;18.98;3.42;;;;;;;;;;5024090;28;20164;-73
2022/01/05 06:05:03;;;;;;;14.90;3.30;;;;;;;;;;5018157;28;20057;-73
2022/01/05 06:07:30;;;;;;;20.35;3.30;;;;;;;;;;5031057;28;20065;-74
2022/01/05 06:09:56;;;;;;;21.38;3.53;;;;;;;;;;5033389;28;20196;-73
2022/01/05 06:12:22;;;;;;;13.80;3.15;;;;;;;;;;5030758;28;20421;-73
2022/01/05 06:14:49;;;;;;;17.58;3.47;;;;;;;;;;5033275;28;20485;-74
2022/01/05 06:17:15;;;;;;;15.35;3.30;;;;;;;;;;5033668;28;20056;-74
2022/01/05 06:19:41;;;;;;;10.45;2.67;;;;;;;;;;5033785;28;20054;-74
2022/01/05 06:22:08;;;;;;;19.67;3.55;;;;;;;;;;5033039;28;20422;-73
2022/01/05 06:24:35;;;;;;;12.65;2.85;;;;;;;;;;5027607;28;20058;-72
2022/01/05 06:27:02;;;;;;;9.88;2.50;;;;;;;;;;5018824;28;20133;-72
2022/01/05 06:29:28;;;;;;;18.92;3.20;;;;;;;;;;5031488;28;20054;-72
2022/01/05 06:31:54;;;;;;;21.55;3.05;;;;;;;;;;5031595;28;20489;-71
2022/01/05 06:34:21;;;;;;;15.05;2.95;;;;;;;;;;5038586;28;20060;-70
2022/01/05 06:36:47;;;;;;;18.05;3.15;;;;;;;;;;5058520;28;20062;-72
2022/01/05 06:39:15;;;;;;;17.75;3.40;;;;;;;;;;5017632;28;20082;-74
2022/01/05 06:41:42;;;;;;;13.93;2.80;;;;;;;;;;5018042;28;20053;-72
2022/01/05 06:44:08;;;;;;;20.00;3.25;;;;;;;;;;5031235;28;20054;-71
2022/01/05 06:46:34;;;;;;;20.48;3.55;;;;;;;;;;5031489;28;20054;-70
2022/01/05 06:49:01;;;;;;;21.60;3.25;;;;;;;;;;5026139;28;20057;-70
2022/01/05 06:51:27;;;;;;;12.10;3.53;;;;;;;;;;5025257;28;20057;-70
2022/01/05 06:53:53;;;;;;;15.38;3.17;;;;;;;;;;5029760;28;20054;-71
2022/01/05 06:56:19;;;;;;;14.93;2.70;;;;;;;;;;5028619;28;20053;-70
2022/01/05 06:58:46;;;;;;;22.90;4.22;;;;;;;;;;5030080;28;20049;-72
2022/01/05 07:01:12;;;;;;;13.95;3.10;;;;;;;;;;5030345;28;20081;-72
2022/01/05 07:03:39;;;;;;;21.02;3.72;;;;;;;;;;5029874;28;20066;-71
2022/01/05 07:06:05;;;;;;;16.83;3.10;;;;;;;;;;5030637;28;20054;-70
2022/01/05 07:08:32;;;;;;;15.75;3.10;;;;;;;;;;5031081;28;20050;-72
2022/01/05 07:10:58;;;;;;;17.85;3.78;;;;;;;;;;5031963;28;20104;-74
2022/01/05 07:13:25;;;;;;;24.95;4.47;;;;;;;;;;5032067;28;20140;-73
2022/01/05 07:15:51;;;;;;;14.32;2.67;;;;;;;;;;5031199;28;20057;-72
2022/01/05 07:18:18;;;;;;;15.48;3.80;;;;;;;;;;5030458;28;20469;-74
2022/01/05 07:20:45;;;;;;;15.00;3.47;;;;;;;;;;5034634;28;20061;-72
2022/01/05 07:23:11;;;;;;;17.45;3.30;;;;;;;;;;5029833;28;20517;-72
2022/01/05 07:25:38;;;;;;;19.95;3.40;;;;;;;;;;5037844;28;20112;-72
2022/01/05 07:28:05;;;;;;;19.20;3.40;;;;;;;;;;5029386;28;22108;-72
2022/01/05 07:30:31;;;;;;;16.88;3.28;;;;;;;;;;5028322;28;20149;-69
2022/01/05 07:32:57;;;;;;;17.15;3.35;;;;;;;;;;5031496;28;20058;-71
2022/01/05 07:35:24;;;;;;;19.80;4.30;;;;;;;;;;5032688;28;20060;-74
2022/01/05 07:37:50;;;;;;;10.00;2.42;;;;;;;;;;5034314;28;20056;-74
2022/01/05 07:40:16;;;;;;;17.45;3.60;;;;;;;;;;5033376;28;20060;-72
2022/01/05 07:42:42;;;;;;;19.20;2.83;;;;;;;;;;5031989;28;20054;-71
2022/01/05 07:45:10;;;;;;;20.80;3.00;;;;;;;;;;5029322;28;20085;-73
2022/01/05 07:47:36;;;;;;;26.38;4.85;;;;;;;;;;5030367;28;20517;-71
2022/01/05 07:50:04;;;;;;;16.77;2.92;;;;;;;;;;5032609;28;20050;-72
2022/01/05 07:52:30;;;;;;;10.60;2.67;;;;;;;;;;5031331;28;20060;-72
2022/01/05 07:54:56;;;;;;;12.52;2.88;;;;;;;;;;5033625;28;20494;-71
2022/01/05 07:57:23;;;;;;;13.25;2.72;;;;;;;;;;5032004;28;20054;-70
2022/01/05 07:59:49;;;;;;;19.65;3.38;;;;;;;;;;5032637;28;20093;-68
2022/01/05 08:02:15;;;;;;;14.40;3.50;;;;;;;;;;5026444;28;20058;-70
2022/01/05 08:04:46;;;;;;;18.13;3.65;;;;;;;;;;5032738;28;20096;-70
2022/01/05 08:07:12;;;;;;;20.65;3.85;;;;;;;;;;5033322;28;20054;-71
2022/01/05 08:09:39;;;;;;;19.67;3.70;;;;;;;;;;5031965;28;20076;-70
2022/01/05 08:12:05;;;;;;;20.15;3.22;;;;;;;;;;5025126;28;20446;-68
2022/01/05 08:14:32;;;;;;;23.25;4.18;;;;;;;;;;5014220;28;20060;-73
2022/01/05 08:16:59;;;;;;;29.42;3.17;;;;;;;;;;5025363;28;20526;-71
2022/01/05 08:19:25;;;;;;;21.30;3.58;;;;;;;;;;5028507;28;20100;-69
2022/01/05 08:21:51;;;;;;;20.42;3.33;;;;;;;;;;5019200;28;20062;-71
2022/01/05 08:24:17;;;;;;;11.98;2.58;;;;;;;;;;5031535;28;20078;-70
2022/01/05 08:26:44;;;;;;;14.45;3.30;;;;;;;;;;5031807;28;20177;-68
2022/01/05 08:29:10;;;;;;;15.18;2.95;;;;;;;;;;5028127;28;20049;-69
2022/01/05 08:31:36;;;;;;;21.30;4.57;;;;;;;;;;5033002;28;20057;-72
2022/01/05 08:34:03;;;;;;;16.85;3.45;;;;;;;;;;5032948;28;20053;-71
2022/01/05 08:36:29;;;;;;;17.67;3.50;;;;;;;;;;5032841;28;20050;-70
2022/01/05 08:38:55;;;;;;;15.05;3.05;;;;;;;;;;5032823;28;20065;-71
2022/01/05 08:41:22;;;;;;;18.35;3.97;;;;;;;;;;5031287;28;20148;-71
2022/01/05 08:43:48;;;;;;;18.13;3.72;;;;;;;;;;5034581;28;20056;-70
2022/01/05 08:46:14;;;;;;;18.65;3.67;;;;;;;;;;5032806;28;20544;-70
2022/01/05 08:48:43;;;;;;;15.80;3.45;;;;;;;;;;5032138;28;20977;-70
2022/01/05 08:51:09;;;;;;;18.85;3.08;;;;;;;;;;5032364;28;20081;-70
2022/01/05 08:53:39;;;;;;;16.02;3.03;;;;;;;;;;5032135;28;20068;-70
2022/01/05 08:56:06;;;;;;;15.23;3.22;;;;;;;;;;5030826;28;20060;-71
2022/01/05 08:58:32;;;;;;;24.05;3.92;;;;;;;;;;5029251;28;20521;-68
2022/01/05 09:00:58;;;;;;;20.33;3.72;;;;;;;;;;5031577;28;20076;-70
2022/01/05 09:03:25;;;;;;;28.58;4.30;;;;;;;;;;5032487;28;20060;-69
2022/01/05 09:05:51;;;;;;;22.52;3.70;;;;;;;;;;5032190;28;20061;-70
2022/01/05 09:08:17;;;;;;;21.60;3.13;;;;;;;;;;5020222;28;20050;-70
2022/01/05 09:10:44;;;;;;;22.63;3.50;;;;;;;;;;5028069;28;20058;-70
2022/01/05 09:13:11;;;;;;;14.95;4.07;;;;;;;;;;5024262;28;20183;-71
2022/01/05 09:15:37;;;;;;;17.25;3.17;;;;;;;;;;5031598;28;20660;-70
2022/01/05 09:18:04;;;;;;;20.35;3.47;;;;;;;;;;5032495;28;20049;-71
2022/01/05 09:20:31;;;;;;;25.92;3.35;;;;;;;;;;5032434;28;20058;-68
2022/01/05 09:22:57;;;;;;;13.02;2.97;;;;;;;;;;5031281;28;20058;-69
2022/01/05 09:25:24;;;;;;;18.77;3.03;;;;;;;;;;5031075;28;20050;-70
2022/01/05 09:27:51;;;;;;;25.80;5.80;;;;;;;;;;5030026;28;20134;-71
2022/01/05 09:30:18;;;;;;;30.10;4.03;;;;;;;;;;5031773;28;20140;-70
2022/01/05 09:32:45;;;;;;;24.27;3.15;;;;;;;;;;5031971;28;20053;-70
2022/01/05 09:35:17;;;;;;;14.10;2.63;;;;;;;;;;5033601;28;20054;-70
2022/01/05 09:37:53;;;;;;;17.90;3.25;;;;;;;;;;5031796;28;20386;-70
2022/01/05 09:43:05;;;;;;;17.73;3.75;;;;;;;;;;5031167;28;20061;-70
2022/01/05 09:45:33;;;;;;;27.52;4.00;;;;;;;;;;5027310;28;20054;-69
2022/01/05 09:48:20;;;;;;;26.17;3.78;;;;;;;;;;5028344;28;20054;-69
2022/01/05 09:50:56;;;;;;;26.30;3.42;;;;;;;;;;5031927;28;20050;-69
2022/01/05 09:53:23;;;;;;;27.38;3.72;;;;;;;;;;5032089;28;20056;-71
2022/01/05 09:55:51;;;;;;;20.45;3.42;;;;;;;;;;5023865;28;20047;-70
2022/01/05 09:58:21;;;;;;;29.90;3.95;;;;;;;;;;5023021;28;20104;-70
2022/01/05 10:00:51;;;;;;;28.75;4.50;;;;;;;;;;5038363;28;20101;-69
2022/01/05 10:03:18;;;;;;;25.20;3.55;;;;;;;;;;5030539;28;20050;-71
2022/01/05 10:05:44;;;;;;;19.90;4.10;;;;;;;;;;5030200;28;20057;-68
2022/01/05 10:08:11;;;;;;;32.28;4.97;;;;;;;;;;5037519;28;20144;-68
2022/01/05 10:10:37;;;;;;;31.17;4.30;;;;;;;;;;5030973;28;20050;-72
2022/01/05 10:13:04;;;;;;;25.92;4.72;;;;;;;;;;5029060;28;20058;-69
2022/01/05 10:15:30;;;;;;;24.48;3.38;;;;;;;;;;5026404;28;20141;-69
2022/01/05 10:18:10;;;;;;;29.40;3.72;;;;;;;;;;5024118;28;20077;-69
2022/01/05 10:20:37;;;;;;;26.70;3.30;;;;;;;;;;5027275;28;20057;-70
2022/01/05 10:23:03;;;;;;;24.85;4.47;;;;;;;;;;5015120;28;20084;-69
2022/01/05 10:25:30;;;;;;;24.88;4.60;;;;;;;;;;5038106;28;21003;-70
2022/01/05 10:27:57;;;;;;;24.05;3.95;;;;;;;;;;5032648;28;20053;-69
2022/01/05 10:30:33;;;;;;;26.77;5.28;;;;;;;;;;5032931;28;20526;-69
2022/01/05 10:33:00;;;;;;;19.17;3.33;;;;;;;;;;5031239;28;20054;-69
2022/01/05 10:35:27;;;;;;;26.63;6.00;;;;;;;;;;5031049;28;20060;-68
2022/01/05 10:38:07;;;;;;;29.60;4.47;;;;;;;;;;5029799;28;20080;-71
2022/01/05 10:40:34;;;;;;;28.58;3.58;;;;;;;;;;5036649;28;20061;-68
2022/01/05 10:43:05;;;;;;;22.45;3.70;;;;;;;;;;5032414;28;20500;-69
2022/01/05 10:45:44;;;;;;;29.52;5.00;;;;;;;;;;5030982;28;20108;-69
2022/01/05 10:48:16;;;;;;;25.98;5.03;;;;;;;;;;5034710;28;20351;-71
2022/01/05 10:50:43;;;;;;;37.08;5.57;;;;;;;;;;5032478;28;20046;-70
2022/01/05 10:53:13;;;;;;;15.82;3.08;;;;;;;;;;5024760;28;20137;-70
2022/01/05 10:55:42;;;;;;;27.10;4.88;;;;;;;;;;5028216;28;20054;-70
2022/01/05 10:58:10;;;;;;;31.50;3.88;;;;;;;;;;5029435;28;20153;-68
2022/01/05 11:00:40;;;;;;;14.02;2.90;;;;;;;;;;5030398;28;20046;-68
2022/01/05 11:03:19;;;;;;;20.08;3.85;;;;;;;;;;5031374;28;20164;-72
2022/01/05 11:06:04;;;;;;;36.10;5.18;;;;;;;;;;5031696;28;20071;-69
2022/01/05 11:08:33;;;;;;;24.98;3.90;;;;;;;;;;5030880;28;20132;-69
2022/01/05 11:11:00;;;;;;;28.95;4.03;;;;;;;;;;5031126;28;20498;-70
2022/01/05 11:13:27;;;;;;;25.75;3.40;;;;;;;;;;5030867;28;20593;-69
2022/01/05 11:15:55;;;;;;;18.63;2.95;;;;;;;;;;5032528;28;20058;-69
2022/01/05 11:18:22;;;;;;;23.83;4.28;;;;;;;;;;5030410;28;20050;-67
2022/01/05 11:21:02;;;;;;;30.67;4.80;;;;;;;;;;5030676;28;20056;-69
2022/01/05 11:23:31;;;;;;;17.40;3.22;;;;;;;;;;5032359;28;20403;-67
2022/01/05 11:25:58;;;;;;;20.73;3.33;;;;;;;;;;5033582;28;20188;-68
2022/01/05 11:28:25;;;;;;;21.20;3.72;;;;;;;;;;5030793;28;21013;-68
2022/01/05 11:30:54;;;;;;;19.75;3.13;;;;;;;;;;5032502;28;20050;-68
2022/01/05 11:33:20;;;;;;;17.55;2.50;;;;;;;;;;5034205;28;20065;-69
2022/01/05 11:35:47;;;;;;;22.83;4.45;;;;;;;;;;5034180;28;20060;-70
2022/01/05 11:38:14;;;;;;;21.30;3.92;;;;;;;;;;5031176;28;20065;-70
2022/01/05 11:40:45;;;;;;;28.25;3.78;;;;;;;;;;5033708;28;20064;-68
2022/01/05 11:43:20;;;;;;;25.88;4.35;;;;;;;;;;5045253;28;20062;-68
2022/01/05 11:45:47;;;;;;;30.13;4.78;;;;;;;;;;5023834;28;20049;-71
2022/01/05 11:48:16;;;;;;;19.52;4.25;;;;;;;;;;5033495;28;20050;-71
2022/01/05 11:50:47;;;;;;;17.48;2.55;;;;;;;;;;5033283;28;20514;-69
2022/01/05 11:53:14;;;;;;;19.17;3.17;;;;;;;;;;5030819;28;20058;-71
2022/01/05 11:56:10;;;;;;;18.52;2.65;;;;;;;;;;5020087;28;20129;-68
2022/01/05 11:58:47;;;;;;;15.97;3.13;;;;;;;;;;5041076;28;20053;-68
2022/01/05 12:01:17;;;;;;;20.35;2.75;;;;;;;;;;5030645;28;20137;-70
2022/01/05 12:03:59;;;;;;;13.55;3.53;;;;;;;;;;5032405;28;20058;-70
2022/01/05 12:06:31;;;;;;;18.70;3.20;;;;;;;;;;5031385;28;20053;-69
2022/01/05 12:08:58;;;;;;;27.23;5.13;;;;;;;;;;5032411;28;20157;-69
2022/01/05 12:11:31;;;;;;;18.10;3.30;;;;;;;;;;5031795;28;20050;-69
2022/01/05 12:13:58;;;;;;;23.80;4.15;;;;;;;;;;5022354;28;20516;-68
2022/01/05 12:16:24;;;;;;;28.08;3.88;;;;;;;;;;5032610;28;20073;-70
2022/01/05 12:19:07;;;;;;;21.25;2.67;;;;;;;;;;5030989;28;20050;-69
2022/01/05 12:21:44;;;;;;;20.00;3.35;;;;;;;;;;5026658;28;20089;-71
2022/01/05 12:24:11;;;;;;;23.92;5.22;;;;;;;;;;5031143;28;20054;-71
2022/01/05 12:26:38;;;;;;;20.05;3.22;;;;;;;;;;5027561;28;20050;-70
2022/01/05 12:29:04;;;;;;;18.85;4.43;;;;;;;;;;5023944;28;20571;-70
2022/01/05 12:31:57;;;;;;;17.17;3.13;;;;;;;;;;5025638;28;20054;-72
2022/01/05 12:34:42;;;;;;;16.42;2.42;;;;;;;;;;5035876;28;20045;-70
2022/01/05 12:37:27;;;;;;;19.23;2.75;;;;;;;;;;5034512;28;20060;-70
2022/01/05 12:39:56;;;;;;;37.63;3.58;;;;;;;;;;5027380;28;20058;-70
2022/01/05 12:42:22;;;;;;;20.92;3.92;;;;;;;;;;5023800;28;20058;-70
2022/01/05 12:44:49;;;;;;;17.17;3.05;;;;;;;;;;5012862;28;20058;-70
2022/01/05 12:47:16;;;;;;;17.85;3.78;;;;;;;;;;5030362;28;20050;-71
2022/01/05 12:49:43;;;;;;;16.05;3.60;;;;;;;;;;5032858;28;20149;-70
2022/01/05 12:52:12;;;;;;;24.35;4.90;;;;;;;;;;5023932;28;20046;-71
2022/01/05 12:54:42;;;;;;;23.55;3.80;;;;;;;;;;5026764;28;20054;-71
2022/01/05 12:57:10;;;;;;;23.13;3.65;;;;;;;;;;5031435;28;20076;-69
2022/01/05 12:59:39;;;;;;;16.77;3.25;;;;;;;;;;5032414;28;20050;-69
2022/01/05 13:02:09;;;;;;;20.08;3.28;;;;;;;;;;5032029;28;20141;-69
2022/01/05 13:04:36;;;;;;;11.13;2.60;;;;;;;;;;5031870;28;20498;-69
2022/01/05 13:07:04;;;;;;;17.10;3.00;;;;;;;;;;5033754;28;20074;-69
2022/01/05 13:09:30;;;;;;;18.27;2.78;;;;;;;;;;5033816;28;20062;-69
2022/01/05 13:11:59;;;;;;;20.75;3.45;;;;;;;;;;5023183;28;20520;-69
2022/01/05 13:14:39;;;;;;;16.10;2.75;;;;;;;;;;5031436;28;20054;-69
2022/01/05 13:17:28;;;;;;;19.48;3.03;;;;;;;;;;5021737;28;20065;-68
2022/01/05 13:20:00;;;;;;;25.30;3.60;;;;;;;;;;5019587;28;20498;-71
2022/01/05 13:22:27;;;;;;;20.00;3.13;;;;;;;;;;5024442;28;20064;-69
2022/01/05 13:24:54;;;;;;;17.23;3.22;;;;;;;;;;5032303;28;20053;-70
2022/01/05 13:27:25;;;;;;;21.80;3.38;;;;;;;;;;5014052;28;20054;-70
2022/01/05 13:29:53;;;;;;;12.63;3.10;;;;;;;;;;5030411;28;20141;-73
2022/01/05 13:32:20;;;;;;;21.90;2.97;;;;;;;;;;5031641;28;20148;-71
2022/01/05 13:34:59;;;;;;;18.60;3.35;;;;;;;;;;5030005;28;20510;-73
2022/01/05 13:37:27;;;;;;;17.92;3.03;;;;;;;;;;5024591;28;20061;-74
2022/01/05 13:39:56;;;;;;;23.33;3.42;;;;;;;;;;5030915;28;20045;-72
2022/01/05 13:42:30;;;;;;;21.38;3.83;;;;;;;;;;5030540;28;20054;-72
2022/01/05 13:44:56;;;;;;;16.63;2.83;;;;;;;;;;5035530;28;20058;-74
2022/01/05 13:47:23;;;;;;;14.15;3.22;;;;;;;;;;5037359;28;20046;-73
2022/01/05 13:50:05;;;;;;;21.77;4.20;;;;;;;;;;5045681;28;20054;-73
2022/01/05 13:52:32;;;;;;;26.60;3.88;;;;;;;;;;5039974;28;20088;-72
2022/01/05 13:54:58;;;;;;;16.52;3.55;;;;;;;;;;5034450;28;20058;-75
2022/01/05 13:57:28;;;;;;;14.88;2.95;;;;;;;;;;5030808;28;20124;-75
2022/01/05 14:00:23;;;;;;;22.25;3.25;;;;;;;;;;5046009;28;20061;-73
2022/01/05 14:02:49;;;;;;;22.23;3.80;;;;;;;;;;5052086;28;20062;-72
2022/01/05 14:05:15;;;;;;;22.02;3.10;;;;;;;;;;5051042;28;20058;-72
2022/01/05 14:07:43;;;;;;;15.88;2.42;;;;;;;;;;5051181;28;20046;-72
2022/01/05 14:10:14;;;;;;;14.10;2.42;;;;;;;;;;5035237;28;20648;-72
2022/01/05 14:12:50;;;;;;;14.52;2.85;;;;;;;;;;5036144;28;20063;-73
2022/01/05 14:15:17;;;;;;;24.55;2.95;;;;;;;;;;5051381;28;20145;-73
2022/01/05 14:17:59;;;;;;;15.85;2.80;;;;;;;;;;5053374;28;20053;-76
2022/01/05 14:20:25;;;;;;;19.75;3.10;;;;;;;;;;5052542;28;20090;-74
2022/01/05 14:22:59;;;;;;;17.20;2.65;;;;;;;;;;5051311;28;20085;-72
2022/01/05 14:25:36;;;;;;;22.67;3.10;;;;;;;;;;5032888;28;20054;-73
2022/01/05 14:28:14;;;;;;;24.98;3.22;;;;;;;;;;5027242;28;20414;-72
2022/01/05 14:30:48;;;;;;;20.50;3.20;;;;;;;;;;5039278;28;20049;-74
2022/01/05 14:33:17;;;;;;;;;;;;;;;;;;5033940;28;20054;-73
2022/01/05 14:35:48;;;;;;;14.65;3.67;;;;;;;;;;5033028;28;42670;-73
2022/01/05 14:38:14;;;;;;;26.75;3.67;;;;;;;;;;5031525;28;20054;-74
2022/01/05 14:40:40;;;;;;;22.48;2.75;;;;;;;;;;5011906;28;20122;-74